Terminal Aerodrome Forecast
Issued by NWS Charleston, WV

Current Version | Previous Version | Graphics & Text | Print | Product List | Glossary On
Versions: 1 2 3 4 5 6 7 8 9 10 11 12 13 14 15 16 17 18 19 20 21 22 23 24 25 26 27 28 29 30 31
131
FTUS41 KRLX 250344 AAB
TAFEKN
TAF AMD
KEKN 250344Z 2504/2524 32005KT P6SM SCT025 BKN040
      TEMPO 2504/2506 BKN025
     FM250800 00000KT 1/4SM FG BKN001
     FM251300 00000KT 4SM BR BKN005
     FM251400 31005KT P6SM BKN025=

USA.gov is the U.S. government's official web portal to all federal, state and local government web resources and services.